createdAt,value
2022-09-23T00:29:25.807Z,0
2022-09-23T00:30:06.251Z,0
2022-09-23T00:30:46.785Z,0
2022-09-23T00:31:27.181Z,0
2022-09-23T00:32:07.646Z,0
2022-09-23T00:32:48.168Z,0
2022-09-23T00:33:28.605Z,0
2022-09-23T00:34:09.094Z,0
2022-09-23T00:34:49.570Z,0
2022-09-23T00:36:10.566Z,0
2022-09-23T00:41:01.111Z,0
2022-09-23T00:41:41.684Z,0
2022-09-23T00:42:22.146Z,0
2022-09-23T00:43:02.624Z,0
2022-09-23T00:43:43.066Z,0
2022-09-23T00:44:23.620Z,0
2022-09-23T00:45:04.116Z,0
2022-09-23T00:45:44.642Z,0
2022-09-23T00:46:25.148Z,0
2022-09-23T00:47:05.578Z,0
2022-09-23T00:47:46.115Z,0
2022-09-23T00:54:30.908Z,0
2022-09-23T00:55:11.375Z,0
2022-09-23T00:55:51.925Z,0
2022-09-23T00:56:32.318Z,0
2022-09-23T00:57:12.782Z,0
2022-09-23T00:57:53.287Z,0
2022-09-23T00:58:33.729Z,0
2022-09-23T00:59:14.235Z,0
2022-09-23T00:59:54.752Z,0
2022-09-23T01:00:35.170Z,0
2022-09-23T01:01:15.797Z,0
2022-09-23T01:01:56.225Z,0
2022-09-23T01:08:40.885Z,0
2022-09-23T01:09:21.367Z,0
2022-09-23T01:10:01.855Z,0
2022-09-23T01:10:42.333Z,0
2022-09-23T01:11:22.787Z,0
2022-09-23T01:12:03.241Z,0
2022-09-23T01:12:43.762Z,0
2022-09-23T01:13:24.189Z,0
2022-09-23T01:14:04.652Z,0
2022-09-23T01:14:45.128Z,0
2022-09-23T01:15:25.624Z,0
2022-09-23T01:16:06.154Z,0
2022-09-23T01:22:51.304Z,0
2022-09-23T01:23:31.731Z,0
2022-09-23T01:24:12.792Z,0
2022-09-23T01:24:53.290Z,0
2022-09-23T01:25:33.760Z,0
2022-09-23T01:26:14.216Z,0
2022-09-23T01:26:54.751Z,0
2022-09-23T01:27:35.285Z,0
2022-09-23T01:28:15.771Z,0
2022-09-23T01:35:41.131Z,0
2022-09-23T01:36:21.635Z,0
2022-09-23T01:37:02.117Z,0
2022-09-23T01:37:42.652Z,0
2022-09-23T01:38:23.134Z,0
2022-09-23T01:39:03.640Z,0
2022-09-23T01:39:44.152Z,0
2022-09-23T01:40:24.663Z,0
2022-09-23T01:41:05.037Z,0
2022-09-23T01:41:45.543Z,0
2022-09-23T01:42:25.995Z,0
2022-09-23T01:49:11.552Z,0
2022-09-23T01:49:51.291Z,0
2022-09-23T01:50:31.802Z,0
2022-09-23T01:51:12.286Z,0
2022-09-23T01:51:52.752Z,0
2022-09-23T01:52:33.228Z,0
2022-09-23T01:53:13.746Z,0
2022-09-23T01:53:54.239Z,0
2022-09-23T01:54:34.780Z,0
2022-09-23T01:55:15.217Z,0
2022-09-23T01:55:55.674Z,0
2022-09-23T01:56:36.132Z,0
2022-09-23T02:00:15.439Z,0
2022-09-23T02:00:55.809Z,0
2022-09-23T02:01:36.407Z,0
2022-09-23T02:02:16.863Z,0
2022-09-23T02:02:57.407Z,0
2022-09-23T02:03:37.886Z,0
2022-09-23T02:04:18.402Z,0
2022-09-23T02:04:58.862Z,0
2022-09-23T02:05:39.371Z,0
2022-09-23T02:06:19.841Z,0
2022-09-23T02:07:00.300Z,0
2022-09-23T02:13:45.366Z,0
2022-09-23T02:14:25.821Z,0
2022-09-23T02:15:06.246Z,0
2022-09-23T02:15:46.699Z,0
2022-09-23T02:16:27.240Z,0
2022-09-23T02:17:08.326Z,0
2022-09-23T02:17:48.834Z,0
2022-09-23T02:18:29.312Z,0
2022-09-23T02:19:09.856Z,0
2022-09-23T02:19:50.226Z,0
2022-09-23T02:26:35.074Z,0
2022-09-23T02:27:15.573Z,0
2022-09-23T02:27:56.101Z,0
2022-09-23T02:28:36.557Z,0
2022-09-23T02:29:17.072Z,0
2022-09-23T02:29:57.543Z,0
2022-09-23T02:30:38.009Z,0
2022-09-23T02:31:18.575Z,0
2022-09-23T02:31:59.442Z,0
2022-09-23T02:32:39.853Z,0
2022-09-23T02:40:05.270Z,0
2022-09-23T02:40:45.817Z,0
2022-09-23T02:41:26.328Z,0
2022-09-23T02:42:06.760Z,0
2022-09-23T02:42:47.279Z,0
2022-09-23T02:43:27.710Z,0
2022-09-23T02:44:08.286Z,0
2022-09-23T02:44:48.660Z,0
2022-09-23T02:45:29.164Z,0
2022-09-23T02:46:09.644Z,0
2022-09-23T02:46:50.110Z,0
2022-09-23T02:51:09.734Z,0
2022-09-23T02:51:50.313Z,0
2022-09-23T02:52:30.682Z,0
2022-09-23T02:53:11.215Z,0
2022-09-23T02:53:51.680Z,0
2022-09-23T02:54:32.267Z,0
2022-09-23T02:55:12.778Z,0
2022-09-23T02:55:53.222Z,0
2022-09-23T02:56:33.677Z,0
2022-09-23T02:57:14.210Z,0
2022-09-23T02:57:54.650Z,0
2022-09-23T03:04:39.477Z,0
2022-09-23T03:05:19.963Z,0
2022-09-23T03:06:00.429Z,0
2022-09-23T03:06:40.944Z,0
2022-09-23T03:07:21.536Z,0
2022-09-23T03:08:01.988Z,0
2022-09-23T03:08:42.466Z,0
2022-09-23T03:09:22.963Z,0
2022-09-23T03:10:03.418Z,0
2022-09-23T03:10:43.899Z,0
2022-09-23T03:11:24.457Z,0
2022-09-23T03:18:49.791Z,0
2022-09-23T03:19:30.314Z,0
2022-09-23T03:20:10.879Z,0
2022-09-23T03:20:51.357Z,0
2022-09-23T03:21:31.805Z,0
2022-09-23T03:22:12.303Z,0
2022-09-23T03:22:52.790Z,0
2022-09-23T03:23:33.284Z,0
2022-09-23T03:24:13.775Z,0
2022-09-23T03:24:54.363Z,0
2022-09-23T03:25:34.791Z,0
2022-09-23T03:32:19.777Z,0
2022-09-23T03:35:33.997Z,0
2022-09-23T03:36:14.523Z,0
2022-09-23T03:36:55.121Z,0
2022-09-23T03:37:35.679Z,0
2022-09-23T03:38:16.327Z,0
2022-09-23T03:38:56.780Z,0
2022-09-23T03:39:37.296Z,0
2022-09-23T03:40:17.809Z,0
2022-09-23T03:40:58.268Z,0
2022-09-23T03:41:38.777Z,0
2022-09-23T03:48:23.894Z,0
2022-09-23T03:49:04.379Z,0
2022-09-23T03:49:44.966Z,0
2022-09-23T03:50:25.538Z,0
2022-09-23T03:51:06.070Z,0
2022-09-23T03:51:46.621Z,0
2022-09-23T03:52:27.191Z,0
2022-09-23T03:53:07.643Z,0
2022-09-23T03:53:48.299Z,0
2022-09-23T03:54:28.899Z,0
2022-09-23T03:59:53.941Z,0
2022-09-23T04:00:34.755Z,0
2022-09-23T04:01:15.144Z,0
2022-09-23T04:01:55.896Z,0
2022-09-23T04:02:36.656Z,0
2022-09-23T04:03:17.326Z,0
2022-09-23T04:03:57.776Z,0
2022-09-23T04:04:38.542Z,0
2022-09-23T04:11:23.799Z,0
2022-09-23T04:12:04.154Z,0
2022-09-23T04:12:44.919Z,0
2022-09-23T04:13:25.409Z,0
2022-09-23T04:14:05.872Z,0
2022-09-23T04:14:46.336Z,0
2022-09-23T04:15:26.825Z,0
2022-09-23T04:16:07.399Z,0
2022-09-23T04:16:48.451Z,0
2022-09-23T04:17:28.881Z,0
2022-09-23T04:23:33.949Z,0
2022-09-23T04:24:14.406Z,0
2022-09-23T04:24:54.948Z,0
2022-09-23T04:25:35.785Z,0
2022-09-23T04:26:16.418Z,0
2022-09-23T04:26:56.937Z,0
2022-09-23T04:27:38.008Z,0
2022-09-23T04:28:18.022Z,0
2022-09-23T04:28:58.903Z,0
2022-09-23T04:34:23.649Z,0
2022-09-23T04:35:04.304Z,0
2022-09-23T04:35:44.783Z,0
2022-09-23T04:36:25.280Z,0
2022-09-23T04:37:05.756Z,0
2022-09-23T04:37:46.940Z,0
2022-09-23T04:38:27.029Z,0
2022-09-23T04:39:07.662Z,0
2022-09-23T04:39:48.185Z,0
2022-09-23T04:40:28.720Z,0
2022-09-23T04:46:33.958Z,0
2022-09-23T04:47:14.545Z,0
2022-09-23T04:47:55.110Z,0
2022-09-23T04:48:35.651Z,0
2022-09-23T04:49:16.265Z,0
2022-09-23T04:49:59.791Z,0
2022-09-23T04:50:37.403Z,0
2022-09-23T04:51:17.877Z,4
2022-09-23T04:51:58.515Z,4
2022-09-23T04:58:44.142Z,4
2022-09-23T04:59:24.762Z,8
2022-09-23T05:00:05.338Z,4
2022-09-23T05:00:46.025Z,4
2022-09-23T05:01:26.585Z,4
2022-09-23T05:02:07.128Z,4
2022-09-23T05:03:28.166Z,8
2022-09-23T05:04:08.718Z,8
2022-09-23T05:08:53.840Z,20
2022-09-23T05:09:34.434Z,24
2022-09-23T05:11:47.821Z,28
2022-09-23T05:12:29.352Z,32
2022-09-23T05:15:04.154Z,40
2022-09-23T05:15:44.708Z,44
2022-09-23T05:16:25.282Z,48
2022-09-23T05:17:05.607Z,52
2022-09-23T05:18:26.685Z,64
2022-09-23T05:19:07.285Z,64
2022-09-23T05:19:47.776Z,68
2022-09-23T05:20:28.295Z,76
2022-09-23T05:21:09.341Z,80
2022-09-23T05:25:07.066Z,128
2022-09-23T05:25:47.499Z,136
2022-09-23T05:26:28.064Z,148
2022-09-23T05:27:08.606Z,164
2022-09-23T05:33:14.416Z,292
2022-09-23T05:33:54.983Z,304
2022-09-23T05:34:35.529Z,316
2022-09-23T05:35:16.158Z,336
2022-09-23T05:35:57.518Z,348
2022-09-23T05:36:39.107Z,368
2022-09-23T05:40:43.737Z,472
2022-09-23T05:41:25.112Z,492
2022-09-23T05:42:06.477Z,512
2022-09-23T05:42:48.068Z,536
2022-09-23T05:43:28.580Z,560
2022-09-23T05:46:54.567Z,704
2022-09-23T05:47:35.087Z,744
2022-09-23T05:48:16.138Z,784
2022-09-23T05:51:49.076Z,1088
2022-09-23T05:52:29.004Z,1136
2022-09-23T06:32:21.212Z,6020
2022-09-23T06:33:02.533Z,4264
2022-09-23T06:33:42.993Z,3892
2022-09-23T06:34:23.782Z,4540
2022-09-23T06:35:04.563Z,4940
2022-09-23T06:35:55.137Z,5016
2022-09-23T06:36:39.884Z,5344
2022-09-23T06:41:50.905Z,6172
2022-09-23T06:42:32.251Z,5980
2022-09-23T06:43:12.719Z,6648
2022-09-23T06:44:33.953Z,6984
2022-09-23T06:45:14.568Z,6996
2022-09-23T06:45:55.031Z,7044
2022-09-23T06:46:35.731Z,7588
2022-09-23T06:47:16.961Z,8260
2022-09-23T06:51:21.096Z,11432
2022-09-23T06:52:01.603Z,11376
2022-09-23T06:52:42.183Z,11080
2022-09-23T06:55:55.921Z,10628
2022-09-23T06:56:39.325Z,9020
2022-09-23T06:57:16.987Z,7996
2022-09-23T06:57:57.736Z,6720
2022-09-23T06:58:38.430Z,6600
2022-09-23T06:59:19.078Z,4876
2022-09-23T06:59:59.541Z,4932
2022-09-23T07:00:40.594Z,5624
2022-09-23T07:01:20.947Z,7140
2022-09-23T07:04:46.046Z,9004
2022-09-23T07:05:26.740Z,8972
2022-09-23T07:06:07.377Z,8476
2022-09-23T07:06:48.087Z,8484
2022-09-23T07:07:29.369Z,8368
2022-09-23T07:08:09.931Z,7684
2022-09-23T07:08:50.543Z,7668
2022-09-23T07:12:56.857Z,5948
2022-09-23T07:15:09.067Z,4144
2022-09-23T07:15:50.269Z,4892
2022-09-23T07:16:30.785Z,5136
2022-09-23T07:17:11.312Z,5632
2022-09-23T07:17:52.843Z,5796
2022-09-23T07:21:27.841Z,4464
2022-09-23T07:22:08.609Z,4648
2022-09-23T07:22:49.153Z,4996
2022-09-23T07:23:29.744Z,4888
2022-09-23T07:24:10.303Z,4684
2022-09-23T07:24:51.184Z,4932
2022-09-23T07:25:31.688Z,4884
2022-09-23T07:26:12.210Z,4964
2022-09-23T07:26:52.753Z,4724
2022-09-23T07:32:18.193Z,3520
2022-09-23T07:32:59.053Z,3184
2022-09-23T07:33:39.536Z,3052
2022-09-23T07:34:20.069Z,2816
2022-09-23T07:35:00.704Z,2672
2022-09-23T07:35:41.201Z,2660
2022-09-23T07:36:22.431Z,2704
2022-09-23T07:37:03.082Z,2768
2022-09-23T07:42:28.033Z,2524
2022-09-23T07:43:08.732Z,2564
2022-09-23T07:43:49.311Z,2584
2022-09-23T07:44:29.825Z,2568
2022-09-23T07:45:10.365Z,2560
2022-09-23T07:45:51.105Z,2540
2022-09-23T07:46:31.712Z,2456
2022-09-23T07:47:12.145Z,2464
2022-09-23T07:47:52.746Z,2440
2022-09-23T07:53:17.884Z,2176
2022-09-23T07:53:58.504Z,2156
2022-09-23T07:54:39.028Z,2128
2022-09-23T07:55:22.225Z,2104
2022-09-23T07:56:03.838Z,2088
2022-09-23T08:03:15.485Z,1900
2022-09-23T08:03:56.048Z,1888
2022-09-23T08:04:37.006Z,1876
2022-09-23T08:05:17.473Z,1864
2022-09-23T08:05:58.444Z,1848
2022-09-23T08:06:39.342Z,1832
2022-09-23T08:07:20.038Z,1824
2022-09-23T08:12:04.931Z,1768
2022-09-23T08:12:45.666Z,1744
2022-09-23T08:13:27.347Z,1732
2022-09-23T08:14:48.527Z,1728
2022-09-23T08:15:29.138Z,1744
2022-09-23T08:16:09.934Z,1756
2022-09-23T08:20:54.849Z,1864
2022-09-23T08:21:36.927Z,1896
2022-09-23T08:22:17.467Z,1912
2022-09-23T08:22:58.052Z,1940
2022-09-23T08:23:38.553Z,1952
2022-09-23T08:24:19.105Z,1964
2022-09-23T08:28:39.647Z,2072
2022-09-23T08:29:20.187Z,2060
2022-09-23T08:30:03.832Z,2060
2022-09-23T08:30:45.233Z,2072
2022-09-23T08:35:29.495Z,2104
2022-09-23T08:36:09.953Z,2092
2022-09-23T08:36:50.478Z,2088
2022-09-23T08:37:31.209Z,2096
2022-09-23T08:38:11.688Z,2100
2022-09-23T08:38:52.329Z,2100
2022-09-23T08:39:32.866Z,2080
2022-09-23T08:40:13.568Z,2064
2022-09-23T08:43:51.631Z,2028
2022-09-23T08:44:32.753Z,2008
2022-09-23T08:45:13.381Z,1996
2022-09-23T08:45:54.137Z,1976
2022-09-23T08:46:34.880Z,1972
2022-09-23T08:49:50.159Z,1976
2022-09-23T08:50:31.151Z,1984
2022-09-23T08:51:12.204Z,1980
2022-09-23T08:51:56.039Z,1992
2022-09-23T08:52:37.074Z,2016
2022-09-23T08:55:21.948Z,2024
2022-09-23T08:56:03.140Z,2024
2022-09-23T08:56:48.362Z,2036
2022-09-23T09:00:08.655Z,2116
2022-09-23T09:02:22.878Z,2112
2022-09-23T09:03:03.592Z,2116
2022-09-23T09:03:44.292Z,2128
2022-09-23T09:04:24.958Z,2116
2022-09-23T09:05:06.007Z,2104
2022-09-23T09:08:32.681Z,2132
2022-09-23T09:09:13.120Z,2140
2022-09-23T09:09:53.749Z,2136
2022-09-23T09:10:34.690Z,2124
2022-09-23T09:11:15.137Z,2128
2022-09-23T09:11:55.836Z,2112
2022-09-23T09:12:36.697Z,2104
2022-09-23T09:17:26.554Z,2200
2022-09-23T09:18:06.929Z,2200
2022-09-23T09:18:47.560Z,2228
2022-09-23T09:19:28.134Z,2240
2022-09-23T09:20:08.709Z,2248
2022-09-23T09:24:12.280Z,2372
2022-09-23T09:24:52.754Z,2388
2022-09-23T09:25:34.083Z,2404
2022-09-23T09:26:13.755Z,2420
2022-09-23T09:26:54.331Z,2440
2022-09-23T09:27:34.853Z,2460
2022-09-23T09:28:15.489Z,2448
2022-09-23T09:31:14.617Z,2272
2022-09-23T09:31:55.243Z,2236
2022-09-23T09:32:41.837Z,2228
2022-09-23T09:33:22.498Z,2272
2022-09-23T09:34:03.023Z,2260
2022-09-23T09:37:39.876Z,2240
2022-09-23T09:38:24.999Z,2228
2022-09-23T09:41:45.760Z,2124
2022-09-23T09:42:25.452Z,2120
2022-09-23T09:43:05.906Z,2076
2022-09-23T09:43:46.443Z,2032
2022-09-23T09:44:26.949Z,2008
2022-09-23T09:47:58.077Z,2084
2022-09-23T09:48:39.390Z,2108
2022-09-23T09:49:20.784Z,2132
2022-09-23T09:50:02.468Z,2144
2022-09-23T09:50:43.916Z,2136
2022-09-23T09:52:07.675Z,2212
2022-09-23T09:52:49.195Z,2260
2022-09-23T09:53:30.876Z,2280
2022-09-23T09:54:10.359Z,2328
2022-09-23T09:54:51.237Z,2352
2022-09-23T09:55:31.815Z,2360
2022-09-23T09:56:12.339Z,2372
2022-09-23T09:56:52.892Z,2388
2022-09-23T10:02:35.545Z,2320
2022-09-23T10:03:16.221Z,2268
2022-09-23T10:03:59.445Z,2248
2022-09-23T10:04:38.586Z,2252
2022-09-23T10:05:20.642Z,2232
2022-09-23T10:08:05.860Z,2160
2022-09-23T10:08:46.359Z,2140
2022-09-23T10:09:26.967Z,2120
2022-09-23T10:10:22.015Z,2096
2022-09-23T10:10:48.355Z,2080
2022-09-23T10:11:29.013Z,2052
2022-09-23T10:12:10.106Z,2020
2022-09-23T10:12:51.531Z,1996
2022-09-23T10:16:21.941Z,1956
2022-09-23T10:17:02.829Z,1944
2022-09-23T10:17:43.996Z,1924
2022-09-23T10:18:25.177Z,1912
2022-09-23T10:19:06.615Z,1888
2022-09-23T10:23:50.132Z,1900
2022-09-23T10:24:30.924Z,1896
2022-09-23T10:25:11.437Z,1892
2022-09-23T10:25:52.855Z,1888
2022-09-23T10:26:33.407Z,1880
2022-09-23T10:27:13.952Z,1880
2022-09-23T10:27:54.431Z,1908
2022-09-23T10:29:53.853Z,1912
2022-09-23T10:30:35.121Z,1920
2022-09-23T10:31:16.124Z,1932
2022-09-23T10:31:57.126Z,1944
2022-09-23T10:32:38.234Z,1956
2022-09-23T10:36:14.567Z,1968
2022-09-23T10:36:55.754Z,1984
2022-09-23T10:37:36.376Z,2004
2022-09-23T10:40:51.280Z,2048
2022-09-23T10:41:31.646Z,2040
2022-09-23T10:42:12.130Z,2036
2022-09-23T10:42:52.640Z,2036
2022-09-23T10:43:33.323Z,2036
2022-09-23T10:44:13.760Z,2020
2022-09-23T10:44:54.262Z,2004
2022-09-23T10:45:36.580Z,1992
2022-09-23T10:46:15.501Z,1972
2022-09-23T10:46:56.562Z,1968
2022-09-23T10:51:01.585Z,1836
2022-09-23T10:54:22.492Z,1764
2022-09-23T10:55:03.826Z,1740
2022-09-23T10:55:45.133Z,1724
2022-09-23T10:56:26.184Z,1712
2022-09-23T10:57:07.071Z,1700
2022-09-23T11:01:51.940Z,1560
2022-09-23T11:02:32.782Z,1556
2022-09-23T11:03:13.135Z,1548
2022-09-23T11:03:53.727Z,1552
2022-09-23T11:04:34.168Z,1572
2022-09-23T11:05:14.796Z,1588
2022-09-23T11:05:55.261Z,1596
2022-09-23T11:09:32.008Z,1608
2022-09-23T11:10:23.551Z,1616
2022-09-23T11:11:05.131Z,1632
2022-09-23T11:14:51.014Z,1720
2022-09-23T11:15:31.944Z,1744
2022-09-23T11:16:13.005Z,1752
2022-09-23T11:16:54.016Z,1768
2022-09-23T11:18:16.112Z,1792
2022-09-23T11:21:41.350Z,1700
2022-09-23T11:22:22.356Z,1688
2022-09-23T11:23:03.395Z,1688
2022-09-23T11:24:25.596Z,1680
2022-09-23T11:27:50.635Z,1744
2022-09-23T11:28:31.680Z,1744
2022-09-23T11:29:12.761Z,1760
2022-09-23T11:29:53.899Z,1756
2022-09-23T11:30:34.936Z,1764
2022-09-23T11:31:16.083Z,1764
2022-09-23T11:34:00.510Z,1744
2022-09-23T11:34:41.464Z,1700
2022-09-23T11:35:22.543Z,1724
2022-09-23T11:36:03.593Z,1684
2022-09-23T11:36:44.539Z,1676
2022-09-23T11:37:25.670Z,1696
2022-09-23T11:40:50.835Z,1764
2022-09-23T11:41:37.245Z,1808
2022-09-23T11:45:53.296Z,2028
2022-09-23T11:46:33.762Z,2032
2022-09-23T11:47:14.195Z,2036
2022-09-23T11:47:54.713Z,2032
2022-09-23T11:48:35.247Z,2000
2022-09-23T11:49:15.680Z,1968
2022-09-23T11:49:56.196Z,1944
2022-09-23T11:50:36.710Z,1908
2022-09-23T11:51:17.213Z,1872
2022-09-23T11:51:57.716Z,1852
2022-09-23T11:52:38.249Z,1836
2022-09-23T12:32:44.876Z,1568
2022-09-23T12:33:25.383Z,1584
2022-09-23T12:34:06.063Z,1596
2022-09-23T12:34:47.761Z,1612
2022-09-23T12:35:28.377Z,1628
2022-09-23T12:36:09.461Z,1648
2022-09-23T12:41:34.836Z,1804
2022-09-23T12:42:16.715Z,1808
2022-09-23T12:42:56.681Z,1808
2022-09-23T12:43:37.199Z,1796
2022-09-23T12:44:17.737Z,1796
2022-09-23T12:44:58.972Z,1784
2022-09-23T12:45:39.510Z,1780
2022-09-23T12:52:24.498Z,1556
2022-09-23T12:53:04.940Z,1524
2022-09-23T12:53:45.406Z,1516
2022-09-23T12:54:25.932Z,1492
2022-09-23T12:55:06.420Z,1456
2022-09-23T12:55:46.978Z,1412
2022-09-23T12:56:27.449Z,1388
2022-09-23T12:57:07.979Z,1360
2022-09-23T12:57:48.458Z,1348
2022-09-23T12:58:28.913Z,1324
2022-09-23T12:59:09.437Z,1304
2022-09-23T13:05:54.495Z,1068
2022-09-23T13:06:34.985Z,1064
2022-09-23T13:07:15.478Z,1056
2022-09-23T13:07:55.942Z,1060
2022-09-23T13:08:36.636Z,1060
2022-09-23T13:09:17.061Z,1056
2022-09-23T13:09:57.577Z,1056
2022-09-23T13:10:38.012Z,1060
2022-09-23T13:11:18.552Z,1064
2022-09-23T13:11:59.044Z,1068
2022-09-23T13:18:44.672Z,972
2022-09-23T13:19:25.225Z,952
2022-09-23T13:20:05.644Z,944
2022-09-23T13:20:46.143Z,936
2022-09-23T13:21:26.692Z,932
2022-09-23T13:22:07.259Z,932
2022-09-23T13:22:47.725Z,936
2022-09-23T13:23:28.213Z,944
2022-09-23T13:24:08.752Z,956
2022-09-23T13:24:49.827Z,968
2022-09-23T13:30:55.268Z,1032
2022-09-23T13:31:35.930Z,1036
2022-09-23T13:36:23.443Z,1004
2022-09-23T13:37:03.966Z,996
2022-09-23T13:37:44.702Z,984
2022-09-23T13:38:25.543Z,972
2022-09-23T13:39:06.172Z,952
2022-09-23T13:44:33.368Z,824
2022-09-23T13:45:14.009Z,824
2022-09-23T13:45:55.143Z,828
2022-09-23T13:46:35.923Z,836
2022-09-23T13:47:16.468Z,848
2022-09-23T13:47:57.671Z,856
2022-09-23T13:54:03.345Z,884
2022-09-23T13:54:43.669Z,884
2022-09-23T13:55:24.146Z,884
2022-09-23T13:56:04.836Z,884
2022-09-23T13:56:45.658Z,884
2022-09-23T13:57:26.178Z,888
2022-09-23T13:58:06.927Z,888
2022-09-23T13:58:47.549Z,888
2022-09-23T13:59:28.481Z,892
2022-09-23T14:04:52.933Z,896
2022-09-23T14:05:33.467Z,900
2022-09-23T14:06:14.597Z,904
2022-09-23T14:06:54.543Z,908
2022-09-23T14:07:35.110Z,916
2022-09-23T14:08:15.603Z,916
2022-09-23T14:08:56.138Z,920
2022-09-23T14:10:17.197Z,932
2022-09-23T14:10:57.782Z,936
2022-09-23T14:17:42.920Z,924
2022-09-23T14:18:23.392Z,916
2022-09-23T14:19:03.930Z,920
2022-09-23T14:19:44.493Z,912
2022-09-23T14:20:25.485Z,912
2022-09-23T14:21:06.138Z,912
2022-09-23T14:21:46.664Z,912
2022-09-23T14:23:07.693Z,916
2022-09-23T14:23:48.128Z,916
2022-09-23T14:29:13.066Z,900
2022-09-23T14:29:53.506Z,892
2022-09-23T14:30:34.071Z,884
2022-09-23T14:31:14.578Z,872
2022-09-23T14:31:55.004Z,860
2022-09-23T14:32:35.562Z,848
2022-09-23T14:33:16.096Z,840
2022-09-23T14:33:56.608Z,832
2022-09-23T14:34:37.165Z,820
2022-09-23T14:35:17.652Z,820
2022-09-23T14:35:58.113Z,808
2022-09-23T14:41:22.837Z,756
2022-09-23T14:45:15.721Z,720
2022-09-23T14:45:56.533Z,716
2022-09-23T14:46:36.898Z,708
2022-09-23T14:47:17.435Z,700
2022-09-23T14:47:57.976Z,696
2022-09-23T14:48:38.422Z,688
2022-09-23T14:49:18.993Z,684
2022-09-23T14:49:59.628Z,672
2022-09-23T14:50:40.279Z,664
2022-09-23T14:54:43.252Z,620
2022-09-23T14:55:23.814Z,616
2022-09-23T14:56:04.186Z,604
2022-09-23T14:56:44.871Z,596
2022-09-23T14:57:25.473Z,592
2022-09-23T14:58:06.003Z,584
2022-09-23T14:59:27.145Z,568
2022-09-23T15:00:07.705Z,560
2022-09-23T15:05:32.927Z,540
2022-09-23T15:06:13.441Z,540
2022-09-23T15:06:54.019Z,536
2022-09-23T15:07:34.491Z,536
2022-09-23T15:08:15.026Z,532
2022-09-23T15:08:55.524Z,528
2022-09-23T15:09:36.204Z,528
2022-09-23T15:10:16.694Z,524
2022-09-23T15:10:57.221Z,520
2022-09-23T15:11:37.743Z,520
2022-09-23T15:18:22.885Z,512
2022-09-23T15:19:03.498Z,512
2022-09-23T15:19:44.084Z,512
2022-09-23T15:20:24.635Z,516
2022-09-23T15:21:05.181Z,516
2022-09-23T15:21:45.668Z,520
2022-09-23T15:22:26.249Z,528
2022-09-23T15:23:06.827Z,528
2022-09-23T15:23:47.378Z,532
2022-09-23T15:24:28.084Z,536
2022-09-23T15:29:12.705Z,540
2022-09-23T15:29:53.276Z,536
2022-09-23T15:30:33.627Z,536
2022-09-23T15:31:14.099Z,536
2022-09-23T15:31:55.719Z,528
2022-09-23T15:32:35.166Z,528
2022-09-23T15:33:15.699Z,524
2022-09-23T15:33:56.146Z,520
2022-09-23T15:34:36.652Z,520
2022-09-23T15:35:17.595Z,512
2022-09-23T15:42:02.781Z,440
2022-09-23T15:42:44.215Z,428
2022-09-23T15:43:26.582Z,420
2022-09-23T15:44:07.218Z,408
2022-09-23T15:44:47.622Z,396
2022-09-23T15:51:33.026Z,320
2022-09-23T15:52:13.466Z,316
2022-09-23T15:52:54.032Z,308
2022-09-23T15:53:34.634Z,304
2022-09-23T15:54:15.122Z,300
2022-09-23T15:54:55.685Z,300
2022-09-23T15:55:36.193Z,300
2022-09-23T15:56:16.643Z,292
2022-09-23T15:56:57.154Z,292
2022-09-23T15:57:37.630Z,288
2022-09-23T16:04:22.734Z,260
2022-09-23T16:05:03.227Z,256
2022-09-23T16:05:43.797Z,256
2022-09-23T16:06:24.462Z,256
2022-09-23T16:07:04.799Z,256
2022-09-23T16:07:45.289Z,256
2022-09-23T16:08:25.840Z,256
2022-09-23T16:09:06.406Z,252
2022-09-23T16:09:46.874Z,256
2022-09-23T16:10:27.352Z,252
2022-09-23T16:11:07.855Z,252
2022-09-23T16:16:49.955Z,240
2022-09-23T16:17:30.375Z,240
2022-09-23T16:18:11.524Z,236
2022-09-23T16:18:52.037Z,232
2022-09-23T16:19:32.787Z,232
2022-09-23T16:20:53.858Z,224
2022-09-23T16:21:34.475Z,224
2022-09-23T16:27:39.297Z,200
2022-09-23T16:28:19.783Z,196
2022-09-23T16:29:00.432Z,196
2022-09-23T16:29:40.836Z,188
2022-09-23T16:30:22.191Z,188
2022-09-23T16:31:02.167Z,184
2022-09-23T16:31:43.064Z,180
2022-09-23T16:32:23.656Z,176
2022-09-23T16:33:04.047Z,172
2022-09-23T16:37:09.677Z,144
2022-09-23T16:37:49.898Z,136
2022-09-23T16:38:30.455Z,136
2022-09-23T16:39:11.128Z,132
2022-09-23T16:39:51.543Z,128
2022-09-23T16:40:32.249Z,128
2022-09-23T16:41:12.634Z,124
2022-09-23T16:41:53.302Z,120
2022-09-23T16:42:34.684Z,120
2022-09-23T16:47:59.392Z,104
2022-09-23T16:48:39.988Z,100
2022-09-23T16:49:20.930Z,100
2022-09-23T16:50:02.376Z,96
2022-09-23T16:50:42.682Z,96
2022-09-23T16:51:23.286Z,96
2022-09-23T16:52:03.809Z,92
2022-09-23T16:52:44.582Z,92
2022-09-23T16:57:29.144Z,80
2022-09-23T16:58:10.005Z,76
2022-09-23T16:58:50.577Z,76
2022-09-23T16:59:32.187Z,72
2022-09-23T17:00:12.789Z,72
2022-09-23T17:00:53.583Z,68
2022-09-23T17:01:34.092Z,68
2022-09-23T17:05:01.294Z,56
2022-09-23T17:05:45.395Z,52
2022-09-23T17:06:23.013Z,52
2022-09-23T17:07:03.760Z,44
2022-09-23T17:07:44.596Z,48
2022-09-23T17:11:49.504Z,36
2022-09-23T17:12:31.536Z,32
2022-09-23T17:13:12.442Z,32
2022-09-23T17:13:53.124Z,28
2022-09-23T17:14:34.195Z,28
2022-09-23T17:17:59.580Z,20
2022-09-23T17:18:40.118Z,20
2022-09-23T17:19:20.773Z,20
2022-09-23T17:20:01.205Z,20
2022-09-23T17:20:42.261Z,16
2022-09-23T17:21:22.770Z,16
2022-09-23T17:22:04.929Z,12
2022-09-23T17:25:45.943Z,12
2022-09-23T17:26:26.796Z,8
2022-09-23T17:27:07.233Z,12
2022-09-23T17:27:47.949Z,8
2022-09-23T17:29:10.140Z,8
2022-09-23T17:29:51.538Z,12
2022-09-23T17:35:15.628Z,8
2022-09-23T17:35:56.247Z,4
2022-09-23T17:36:36.760Z,4
2022-09-23T17:37:17.219Z,4
2022-09-23T17:37:57.670Z,4
2022-09-23T17:38:38.178Z,0
2022-09-23T17:39:18.796Z,4
2022-09-23T17:40:00.117Z,4
2022-09-23T17:46:45.455Z,0
2022-09-23T17:47:25.938Z,0
2022-09-23T17:48:06.484Z,0
2022-09-23T17:48:46.989Z,0
2022-09-23T17:49:27.701Z,0
2022-09-23T17:50:08.197Z,0
2022-09-23T17:50:48.695Z,0
2022-09-23T17:51:29.205Z,0
2022-09-23T17:52:09.869Z,0
2022-09-23T17:52:50.574Z,0
2022-09-23T18:34:45.681Z,0
2022-09-23T18:35:25.905Z,0
2022-09-23T18:36:06.428Z,0
2022-09-23T18:36:47.155Z,0
2022-09-23T18:37:27.672Z,0
2022-09-23T18:38:08.206Z,0
2022-09-23T18:38:48.701Z,0
2022-09-23T18:39:29.302Z,0
2022-09-23T18:40:13.933Z,0
2022-09-23T18:45:30.187Z,0
2022-09-23T18:46:11.310Z,0
2022-09-23T18:46:52.099Z,0
2022-09-23T18:47:33.108Z,0
2022-09-23T18:48:13.657Z,0
2022-09-23T18:48:54.311Z,0
2022-09-23T18:52:59.237Z,0
2022-09-23T18:53:39.659Z,0
2022-09-23T18:54:20.149Z,0
2022-09-23T18:55:02.145Z,0
2022-09-23T18:55:42.770Z,0
2022-09-23T18:56:23.668Z,0
2022-09-23T19:03:09.241Z,0
2022-09-23T19:03:49.812Z,0
2022-09-23T19:05:11.443Z,0
2022-09-23T19:05:51.962Z,0
2022-09-23T19:06:32.397Z,0
2022-09-23T19:07:53.554Z,0
2022-09-23T19:08:34.920Z,0
2022-09-23T19:11:19.213Z,0
2022-09-23T19:11:59.585Z,0
2022-09-23T19:12:40.077Z,0
2022-09-23T19:13:20.568Z,0
2022-09-23T19:14:01.573Z,0
2022-09-23T19:14:42.049Z,0
2022-09-23T19:15:22.618Z,0
2022-09-23T19:16:03.094Z,0
2022-09-23T19:16:43.642Z,0
2022-09-23T19:24:09.337Z,0
2022-09-23T19:24:49.772Z,0
2022-09-23T19:25:30.234Z,0
2022-09-23T19:26:10.708Z,0
2022-09-23T19:26:51.188Z,0
2022-09-23T19:27:31.699Z,0
2022-09-23T19:28:12.258Z,0
2022-09-23T19:28:52.745Z,0
2022-09-23T19:32:37.743Z,0
2022-09-23T19:33:18.295Z,0
2022-09-23T19:33:58.732Z,0
2022-09-23T19:34:39.221Z,0
2022-09-23T19:35:19.715Z,0
2022-09-23T19:36:00.183Z,0
2022-09-23T19:36:40.664Z,0
2022-09-23T19:37:21.209Z,0
2022-09-23T19:38:01.632Z,0
2022-09-23T19:38:42.146Z,0
2022-09-23T19:39:22.728Z,0
2022-09-23T19:44:47.470Z,0
2022-09-23T19:45:27.979Z,0
2022-09-23T19:46:08.552Z,0
2022-09-23T19:46:51.887Z,0
2022-09-23T19:48:09.870Z,0
2022-09-23T19:48:50.427Z,0
2022-09-23T19:49:30.918Z,0
2022-09-23T19:50:11.964Z,0
2022-09-23T19:50:52.011Z,0
2022-09-23T19:51:32.435Z,0
2022-09-23T19:57:37.982Z,0
2022-09-23T19:58:18.523Z,0
2022-09-23T19:58:59.054Z,0
2022-09-23T19:59:39.563Z,0
2022-09-23T20:00:20.093Z,0
2022-09-23T20:01:00.681Z,0